createdAt,value
2022-10-19T00:01:26.997Z,93.17
2022-10-19T00:03:55.989Z,93.36
2022-10-19T00:06:31.346Z,93.00
2022-10-19T00:08:58.034Z,93.14
2022-10-19T00:11:24.842Z,92.86
2022-10-19T00:13:52.433Z,93.15
2022-10-19T00:16:19.016Z,92.92
2022-10-19T00:18:46.090Z,93.55
2022-10-19T00:21:15.912Z,93.56
2022-10-19T00:23:42.974Z,93.32
2022-10-19T00:26:09.653Z,94.20
2022-10-19T00:28:36.470Z,93.67
2022-10-19T00:31:11.354Z,93.64
2022-10-19T00:33:38.250Z,93.75
2022-10-19T00:36:05.231Z,93.58
2022-10-19T00:38:32.056Z,93.64
2022-10-19T00:40:58.605Z,93.72
2022-10-19T00:43:30.057Z,94.26
2022-10-19T00:45:56.455Z,94.28
2022-10-19T00:48:27.036Z,94.23
2022-10-19T00:50:55.862Z,93.82
2022-10-19T00:53:25.456Z,94.03
2022-10-19T00:55:52.185Z,93.89
2022-10-19T00:58:19.134Z,94.14
2022-10-19T01:00:46.164Z,94.38
2022-10-19T01:03:14.109Z,94.72
2022-10-19T01:05:41.257Z,94.59
2022-10-19T01:08:09.469Z,94.09
2022-10-19T01:10:56.380Z,94.09
2022-10-19T01:13:36.623Z,94.06
2022-10-19T01:16:36.439Z,93.99
2022-10-19T01:19:28.017Z,93.99
2022-10-19T01:22:05.159Z,94.17
2022-10-19T01:27:53.285Z,94.33
2022-10-19T01:30:32.858Z,93.54
2022-10-19T01:33:09.875Z,93.09
2022-10-19T01:35:44.084Z,93.55
2022-10-19T01:38:36.686Z,93.62
2022-10-19T01:41:15.270Z,93.85
2022-10-19T01:44:10.311Z,93.58
2022-10-19T01:46:39.502Z,93.46
2022-10-19T01:49:15.306Z,93.26
2022-10-19T01:51:46.980Z,93.30
2022-10-19T01:54:16.309Z,93.58
2022-10-19T01:56:46.163Z,92.54
2022-10-19T01:59:15.229Z,91.99
2022-10-19T02:01:44.779Z,92.88
2022-10-19T02:04:15.020Z,92.70
2022-10-19T02:06:41.536Z,92.69
2022-10-19T02:09:09.199Z,92.87
2022-10-19T02:11:37.491Z,93.02
2022-10-19T02:14:10.754Z,92.87
2022-10-19T02:16:44.909Z,92.94
2022-10-19T02:19:14.829Z,92.58
2022-10-19T02:21:41.262Z,93.37
2022-10-19T02:24:07.748Z,93.14
2022-10-19T02:26:34.487Z,92.17
2022-10-19T02:29:01.330Z,92.35
2022-10-19T02:31:27.872Z,92.22
2022-10-19T02:33:54.557Z,92.28
2022-10-19T02:36:21.339Z,92.59
2022-10-19T02:38:47.763Z,92.80
2022-10-19T02:41:32.951Z,92.63
2022-10-19T02:44:05.048Z,91.72
2022-10-19T02:46:54.836Z,92.25
2022-10-19T02:49:21.707Z,91.19
2022-10-19T02:51:56.468Z,92.33
2022-10-19T02:54:23.969Z,92.51
2022-10-19T02:56:50.372Z,92.85
2022-10-19T02:59:17.896Z,92.94
2022-10-19T03:01:44.752Z,93.20
2022-10-19T03:04:11.184Z,93.55
2022-10-19T03:06:37.600Z,92.61
2022-10-19T03:09:04.548Z,92.70
2022-10-19T03:11:30.976Z,91.74
2022-10-19T03:13:57.305Z,91.60
2022-10-19T03:16:23.822Z,91.07
2022-10-19T03:18:51.050Z,90.65
2022-10-19T03:21:18.835Z,90.86
2022-10-19T03:23:45.392Z,90.90
2022-10-19T03:26:14.468Z,90.98
2022-10-19T03:28:40.991Z,90.49
2022-10-19T03:31:07.412Z,90.86
2022-10-19T03:33:33.772Z,90.89
2022-10-19T03:36:15.044Z,91.02
2022-10-19T03:38:41.871Z,90.89
2022-10-19T03:41:09.027Z,90.96
2022-10-19T03:43:35.450Z,90.73
2022-10-19T03:46:01.863Z,90.71
2022-10-19T03:48:28.214Z,89.41
2022-10-19T03:51:06.748Z,88.83
2022-10-19T03:53:33.841Z,89.93
2022-10-19T03:56:02.340Z,90.79
2022-10-19T03:58:29.209Z,91.50
2022-10-19T04:00:55.582Z,91.49
2022-10-19T04:03:22.001Z,91.47
2022-10-19T04:05:48.355Z,91.71
2022-10-19T04:08:14.699Z,91.78
2022-10-19T04:10:41.723Z,91.54
2022-10-19T04:13:08.095Z,91.40
2022-10-19T04:15:34.454Z,92.00
2022-10-19T04:18:01.152Z,91.71
2022-10-19T04:20:27.723Z,91.63
2022-10-19T04:22:54.139Z,91.75
2022-10-19T04:25:20.864Z,91.65
2022-10-19T04:27:47.196Z,90.50
2022-10-19T04:30:13.759Z,91.16
2022-10-19T04:32:40.145Z,91.51
2022-10-19T04:35:07.782Z,91.73
2022-10-19T04:37:34.615Z,91.87
2022-10-19T04:40:01.228Z,91.85
2022-10-19T04:42:27.978Z,92.21
2022-10-19T04:44:54.544Z,92.72
2022-10-19T04:47:21.109Z,92.35
2022-10-19T04:49:47.775Z,92.24
2022-10-19T04:52:14.119Z,92.43
2022-10-19T04:54:40.539Z,91.85
2022-10-19T04:57:07.094Z,91.80
2022-10-19T04:59:33.527Z,92.14
2022-10-19T05:02:00.063Z,92.51
2022-10-19T05:04:26.383Z,91.99
2022-10-19T05:06:52.709Z,92.25
2022-10-19T05:09:19.175Z,91.59
2022-10-19T05:11:45.952Z,92.11
2022-10-19T05:14:12.277Z,92.33
2022-10-19T05:16:38.666Z,92.39
2022-10-19T05:19:04.958Z,92.69
2022-10-19T05:21:31.383Z,92.47
2022-10-19T05:23:58.214Z,92.34
2022-10-19T05:26:27.195Z,92.26
2022-10-19T05:28:56.315Z,92.45
2022-10-19T05:31:25.669Z,92.08
2022-10-19T05:33:52.043Z,91.51
2022-10-19T05:36:30.411Z,91.36
2022-10-19T05:38:57.864Z,91.23
2022-10-19T05:41:25.982Z,91.93
2022-10-19T05:43:57.765Z,91.98
2022-10-19T05:46:25.285Z,92.08
2022-10-19T05:48:52.560Z,92.19
2022-10-19T05:51:20.782Z,92.67
2022-10-19T05:53:47.406Z,92.65
2022-10-19T05:56:17.802Z,92.64
2022-10-19T05:58:45.039Z,92.59
2022-10-19T06:01:12.179Z,92.57
2022-10-19T06:03:38.563Z,92.46
2022-10-19T06:06:06.601Z,92.84
2022-10-19T06:08:33.109Z,92.80
2022-10-19T06:11:15.549Z,92.89
2022-10-19T06:13:43.189Z,91.95
2022-10-19T06:16:11.483Z,91.74
2022-10-19T06:18:38.681Z,91.30
2022-10-19T06:21:07.985Z,90.76
2022-10-19T06:23:35.349Z,91.10
2022-10-19T06:26:03.850Z,91.06
2022-10-19T06:28:30.179Z,91.33
2022-10-19T06:30:58.478Z,91.46
2022-10-19T06:33:25.712Z,91.09
2022-10-19T06:35:52.152Z,91.81
2022-10-19T06:38:18.613Z,91.82
2022-10-19T06:40:45.469Z,91.85
2022-10-19T06:43:11.829Z,91.89
2022-10-19T06:45:38.563Z,91.43
2022-10-19T06:48:07.705Z,90.27
2022-10-19T06:50:34.404Z,90.40
2022-10-19T06:53:01.350Z,90.32
2022-10-19T06:55:27.879Z,90.86
2022-10-19T06:57:54.183Z,91.45
2022-10-19T07:00:20.667Z,91.88
2022-10-19T07:02:47.339Z,91.74
2022-10-19T07:05:13.670Z,90.97
2022-10-19T07:07:40.092Z,91.05
2022-10-19T07:10:06.869Z,90.93
2022-10-19T07:12:33.200Z,89.41
2022-10-19T07:14:59.703Z,89.79
2022-10-19T07:17:26.188Z,88.98
2022-10-19T07:19:52.867Z,88.68
2022-10-19T07:22:24.351Z,88.07
2022-10-19T07:24:53.588Z,88.40
2022-10-19T07:27:19.994Z,89.08
2022-10-19T07:29:46.537Z,88.76
2022-10-19T07:32:12.952Z,88.65
2022-10-19T07:34:39.279Z,88.55
2022-10-19T07:37:05.925Z,89.01
2022-10-19T07:39:32.477Z,88.67
2022-10-19T07:41:59.026Z,88.15
2022-10-19T07:44:25.408Z,88.38
2022-10-19T07:46:51.879Z,87.34
2022-10-19T07:49:18.530Z,87.57
2022-10-19T07:51:45.663Z,87.22
2022-10-19T07:54:12.376Z,87.36
2022-10-19T07:56:39.216Z,86.49
2022-10-19T07:59:05.522Z,86.21
2022-10-19T08:01:35.047Z,87.21
2022-10-19T08:06:48.462Z,86.73
2022-10-19T08:09:33.509Z,87.37
2022-10-19T08:12:04.878Z,88.09
2022-10-19T08:14:31.827Z,88.19
2022-10-19T08:16:58.284Z,86.97
2022-10-19T08:19:24.596Z,87.29
2022-10-19T08:21:51.065Z,87.40
2022-10-19T08:24:19.272Z,86.74
2022-10-19T08:26:46.452Z,87.04
2022-10-19T08:29:15.571Z,86.38
2022-10-19T08:31:43.797Z,86.51
2022-10-19T08:34:11.653Z,87.25
2022-10-19T08:36:38.184Z,86.78
2022-10-19T08:39:06.463Z,86.39
2022-10-19T08:41:45.197Z,86.32
2022-10-19T08:44:30.957Z,87.14
2022-10-19T08:47:13.329Z,87.35
2022-10-19T08:49:41.541Z,86.84
2022-10-19T08:52:17.039Z,87.20
2022-10-19T08:57:35.923Z,83.86
2022-10-19T09:00:11.628Z,83.53
2022-10-19T09:02:47.162Z,83.74
2022-10-19T09:05:32.368Z,80.79
2022-10-19T09:07:59.849Z,80.08
2022-10-19T09:10:35.659Z,80.28
2022-10-19T09:13:08.763Z,79.06
2022-10-19T09:15:41.524Z,76.14
2022-10-19T09:18:14.116Z,75.91
2022-10-19T09:20:44.115Z,74.17
2022-10-19T09:23:25.914Z,73.24
2022-10-19T09:25:53.220Z,72.41
2022-10-19T09:28:39.689Z,73.49
2022-10-19T09:31:15.484Z,74.15
2022-10-19T09:33:43.871Z,72.27
2022-10-19T09:36:18.319Z,73.23
2022-10-19T09:38:54.109Z,72.84
2022-10-19T09:41:22.234Z,72.31
2022-10-19T09:43:56.706Z,72.39
2022-10-19T09:46:52.177Z,71.87
2022-10-19T09:49:38.257Z,69.64
2022-10-19T09:52:04.867Z,69.17
2022-10-19T09:54:39.203Z,69.98
2022-10-19T09:57:05.824Z,70.63
2022-10-19T09:59:36.854Z,68.91
2022-10-19T10:02:09.151Z,68.96
2022-10-19T10:04:35.484Z,66.80
2022-10-19T10:07:04.162Z,66.34
2022-10-19T10:09:31.384Z,64.28
2022-10-19T10:11:59.455Z,66.22
2022-10-19T10:14:38.652Z,65.32
2022-10-19T10:17:12.410Z,65.29
2022-10-19T10:19:57.660Z,65.82
2022-10-19T10:22:33.952Z,65.61
2022-10-19T10:25:01.089Z,65.53
2022-10-19T10:27:38.695Z,64.49
2022-10-19T10:30:08.261Z,64.81
2022-10-19T10:32:47.293Z,65.48
2022-10-19T10:35:19.570Z,65.15
2022-10-19T10:37:47.573Z,64.35
2022-10-19T10:40:23.233Z,64.58
2022-10-19T10:42:52.622Z,63.69
2022-10-19T10:45:24.130Z,61.86
2022-10-19T10:47:51.028Z,60.60
2022-10-19T10:50:34.399Z,59.27
2022-10-19T10:53:29.432Z,59.94
2022-10-19T10:55:56.723Z,60.83
2022-10-19T10:58:42.652Z,61.31
2022-10-19T11:01:17.959Z,62.82
2022-10-19T11:03:52.184Z,61.45
2022-10-19T11:06:21.325Z,61.06
2022-10-19T11:09:13.152Z,62.45
2022-10-19T11:11:44.647Z,62.57
2022-10-19T11:14:29.903Z,62.34
2022-10-19T11:17:00.344Z,62.52
2022-10-19T11:19:35.829Z,60.99
2022-10-19T11:22:11.490Z,60.25
2022-10-19T11:24:59.779Z,59.77
2022-10-19T11:27:52.286Z,60.09
2022-10-19T11:30:21.305Z,58.37
2022-10-19T11:33:12.596Z,58.08
2022-10-19T11:35:44.574Z,57.96
2022-10-19T11:38:21.823Z,56.70
2022-10-19T11:41:17.258Z,57.83
2022-10-19T11:44:03.338Z,57.82
2022-10-19T11:46:41.644Z,58.74
2022-10-19T11:49:12.946Z,59.69
2022-10-19T11:52:12.007Z,57.45
2022-10-19T11:54:44.777Z,57.96
2022-10-19T11:57:19.514Z,58.88
2022-10-19T12:00:14.467Z,55.93
2022-10-19T12:03:02.831Z,57.65
2022-10-19T12:05:59.617Z,58.43
2022-10-19T12:08:26.305Z,58.75
2022-10-19T12:10:54.824Z,58.73
2022-10-19T12:13:28.344Z,59.64
2022-10-19T12:15:56.387Z,59.03
2022-10-19T12:18:36.472Z,59.20
2022-10-19T12:21:08.491Z,59.74
2022-10-19T12:23:41.205Z,60.04
2022-10-19T12:26:10.472Z,60.15
2022-10-19T12:28:41.861Z,60.41
2022-10-19T12:31:10.835Z,61.37
2022-10-19T12:33:44.071Z,59.91
2022-10-19T12:36:48.898Z,59.86
2022-10-19T12:39:27.211Z,60.04
2022-10-19T12:42:00.961Z,57.70
2022-10-19T12:44:41.238Z,59.46
2022-10-19T12:47:11.992Z,59.49
2022-10-19T12:49:47.693Z,58.74
2022-10-19T12:52:16.088Z,58.38
2022-10-19T12:54:43.636Z,56.77
2022-10-19T12:57:27.532Z,57.82
2022-10-19T13:00:22.994Z,56.14
2022-10-19T13:02:59.567Z,55.94
2022-10-19T13:05:28.826Z,56.74
2022-10-19T13:07:56.017Z,57.18
2022-10-19T13:10:26.469Z,57.96
2022-10-19T13:12:53.865Z,57.53
2022-10-19T13:15:35.790Z,56.56
2022-10-19T13:18:12.728Z,56.58
2022-10-19T13:23:05.479Z,57.38
2022-10-19T13:25:33.031Z,57.13
2022-10-19T13:28:08.176Z,56.15
2022-10-19T13:30:37.724Z,56.43
2022-10-19T13:33:23.153Z,56.05
2022-10-19T13:35:49.647Z,56.22
2022-10-19T13:38:16.170Z,57.61
2022-10-19T13:41:18.091Z,56.73
2022-10-19T13:43:59.341Z,57.65
2022-10-19T13:46:29.129Z,55.75
2022-10-19T13:49:17.249Z,56.02
2022-10-19T13:52:02.883Z,54.77
2022-10-19T13:54:56.255Z,54.46
2022-10-19T13:57:44.425Z,55.61
2022-10-19T14:00:14.390Z,56.42
2022-10-19T14:02:46.389Z,57.06
2022-10-19T14:05:31.082Z,57.13
2022-10-19T14:08:21.827Z,57.31
2022-10-19T14:11:01.218Z,57.53
2022-10-19T14:13:28.784Z,57.45
2022-10-19T14:15:57.405Z,58.01
2022-10-19T14:18:30.202Z,58.18
2022-10-19T14:21:01.552Z,57.70
2022-10-19T14:23:30.751Z,56.73
2022-10-19T14:26:07.107Z,56.51
2022-10-19T14:28:33.879Z,56.72
2022-10-19T14:31:04.855Z,57.58
2022-10-19T14:33:38.849Z,55.42
2022-10-19T14:36:07.787Z,54.44
2022-10-19T14:38:38.219Z,55.41
2022-10-19T14:41:06.287Z,54.00
2022-10-19T14:43:34.660Z,55.74
2022-10-19T14:46:07.268Z,57.29
2022-10-19T14:48:35.372Z,58.42
2022-10-19T14:51:04.981Z,56.78
2022-10-19T14:53:34.335Z,58.35
2022-10-19T14:56:16.977Z,60.04
2022-10-19T14:58:58.923Z,59.85
2022-10-19T15:01:25.532Z,60.40
2022-10-19T15:03:52.454Z,60.17
2022-10-19T15:06:25.978Z,59.91
2022-10-19T15:08:59.603Z,59.34
2022-10-19T15:11:41.084Z,60.08
2022-10-19T15:14:16.663Z,60.34
2022-10-19T15:16:49.183Z,59.72
2022-10-19T15:19:28.390Z,59.84
2022-10-19T15:22:23.170Z,60.82
2022-10-19T15:25:07.590Z,61.16
2022-10-19T15:27:44.110Z,60.92
2022-10-19T15:30:20.127Z,61.00
2022-10-19T15:32:50.033Z,61.86
2022-10-19T15:35:22.919Z,62.41
2022-10-19T15:37:50.854Z,62.93
2022-10-19T15:40:33.885Z,62.48
2022-10-19T15:43:00.706Z,63.10
2022-10-19T15:45:39.433Z,63.47
2022-10-19T15:48:14.952Z,64.31
2022-10-19T15:50:44.868Z,64.35
2022-10-19T15:53:11.203Z,64.22
2022-10-19T15:55:37.735Z,65.24
2022-10-19T15:58:04.110Z,65.90
2022-10-19T16:00:30.964Z,65.14
2022-10-19T16:03:00.093Z,65.28
2022-10-19T16:05:26.704Z,65.93
2022-10-19T16:07:53.590Z,65.03
2022-10-19T16:10:26.178Z,65.03
2022-10-19T16:12:52.881Z,65.38
2022-10-19T16:15:23.919Z,65.81
2022-10-19T16:17:53.403Z,66.21
2022-10-19T16:20:20.839Z,66.53
2022-10-19T16:22:49.509Z,67.06
2022-10-19T16:25:16.668Z,66.42
2022-10-19T16:27:43.296Z,67.06
2022-10-19T16:30:10.327Z,66.73
2022-10-19T16:32:36.760Z,67.23
2022-10-19T16:35:03.500Z,67.86
2022-10-19T16:37:29.888Z,68.00
2022-10-19T16:39:56.212Z,68.01
2022-10-19T16:42:24.613Z,68.24
2022-10-19T16:44:53.264Z,68.56
2022-10-19T16:47:19.832Z,69.12
2022-10-19T16:49:46.170Z,68.91
2022-10-19T16:52:15.766Z,69.05
2022-10-19T16:54:42.255Z,69.56
2022-10-19T16:57:09.932Z,70.20
2022-10-19T16:59:36.507Z,70.20
2022-10-19T17:02:02.883Z,70.69
2022-10-19T17:04:29.195Z,70.38
2022-10-19T17:06:55.893Z,70.50
2022-10-19T17:09:40.707Z,70.30
2022-10-19T17:12:08.435Z,70.43
2022-10-19T17:14:35.660Z,70.33
2022-10-19T17:17:02.324Z,70.86
2022-10-19T17:19:28.668Z,71.32
2022-10-19T17:21:55.553Z,71.10
2022-10-19T17:24:22.355Z,71.92
2022-10-19T17:26:51.117Z,70.90
2022-10-19T17:29:17.933Z,71.72
2022-10-19T17:31:44.617Z,72.04
2022-10-19T17:34:11.653Z,71.73
2022-10-19T17:39:11.191Z,72.73
2022-10-19T17:41:37.690Z,72.67
2022-10-19T17:44:05.268Z,72.46
2022-10-19T17:46:33.995Z,72.36
2022-10-19T17:49:00.855Z,72.34
2022-10-19T17:51:30.382Z,72.39
2022-10-19T17:53:59.626Z,73.19
2022-10-19T17:56:27.175Z,73.56
2022-10-19T17:58:54.233Z,73.41
2022-10-19T18:01:22.609Z,73.23
2022-10-19T18:03:50.093Z,73.18
2022-10-19T18:06:18.286Z,73.02
2022-10-19T18:08:47.843Z,73.71
2022-10-19T18:11:20.947Z,73.33
2022-10-19T18:13:49.196Z,72.91
2022-10-19T18:16:22.014Z,73.33
2022-10-19T18:18:50.142Z,72.82
2022-10-19T18:21:19.112Z,73.08
2022-10-19T18:23:45.756Z,73.49
2022-10-19T18:26:18.343Z,73.12
2022-10-19T18:28:44.682Z,73.32
2022-10-19T18:31:13.863Z,73.89
2022-10-19T18:33:41.574Z,73.85
2022-10-19T18:36:10.341Z,74.05
2022-10-19T18:38:37.442Z,74.65
2022-10-19T18:41:09.106Z,73.24
2022-10-19T18:43:39.502Z,72.90
2022-10-19T18:46:07.471Z,72.90
2022-10-19T18:48:37.041Z,72.24
2022-10-19T18:51:08.245Z,72.64
2022-10-19T18:53:35.251Z,72.41
2022-10-19T18:56:12.870Z,72.83
2022-10-19T18:58:39.573Z,72.39
2022-10-19T19:01:19.781Z,72.66
2022-10-19T19:03:48.590Z,72.08
2022-10-19T19:06:26.717Z,72.77
2022-10-19T19:08:57.591Z,72.92
2022-10-19T19:11:30.718Z,73.37
2022-10-19T19:14:00.988Z,73.77
2022-10-19T19:16:29.222Z,73.32
2022-10-19T19:18:55.616Z,74.02
2022-10-19T19:21:27.868Z,74.14
2022-10-19T19:23:55.834Z,74.37
2022-10-19T19:26:24.983Z,74.17
2022-10-19T19:28:51.888Z,73.80
2022-10-19T19:31:19.329Z,74.38
2022-10-19T19:33:47.199Z,74.44
2022-10-19T19:36:15.170Z,74.75
2022-10-19T19:38:42.281Z,74.95
2022-10-19T19:41:11.686Z,75.33
2022-10-19T19:43:39.378Z,75.17
2022-10-19T19:46:09.202Z,74.91
2022-10-19T19:48:37.081Z,75.20
2022-10-19T19:51:04.031Z,75.47
2022-10-19T19:53:30.673Z,75.34
2022-10-19T19:55:57.158Z,74.37
2022-10-19T19:58:23.528Z,74.47
2022-10-19T20:00:49.872Z,74.72
2022-10-19T20:03:16.205Z,74.98
2022-10-19T20:05:42.831Z,75.57
2022-10-19T20:08:09.439Z,75.37
2022-10-19T20:10:40.531Z,75.55
2022-10-19T20:13:07.230Z,75.73
2022-10-19T20:15:34.235Z,76.07
2022-10-19T20:18:00.574Z,76.40
2022-10-19T20:20:27.056Z,76.72
2022-10-19T20:22:53.492Z,75.79
2022-10-19T20:25:19.936Z,75.23
2022-10-19T20:27:46.288Z,75.51
2022-10-19T20:30:12.829Z,75.58
2022-10-19T20:32:39.271Z,75.87
2022-10-19T20:35:05.965Z,76.05
2022-10-19T20:37:32.326Z,76.07
2022-10-19T20:39:58.697Z,76.68
2022-10-19T20:42:25.201Z,76.76
2022-10-19T20:44:51.786Z,77.24
2022-10-19T20:47:18.255Z,77.54
2022-10-19T20:49:44.667Z,77.47
2022-10-19T20:52:11.299Z,77.62
2022-10-19T20:54:37.693Z,77.64
2022-10-19T20:57:04.125Z,78.35
2022-10-19T20:59:30.528Z,78.03
2022-10-19T21:01:57.671Z,78.41
2022-10-19T21:04:25.035Z,78.70
2022-10-19T21:06:52.581Z,78.19
2022-10-19T21:09:23.630Z,78.87
2022-10-19T21:11:51.542Z,78.61
2022-10-19T21:14:23.735Z,78.79
2022-10-19T21:16:53.704Z,78.94
2022-10-19T21:19:22.562Z,78.90
2022-10-19T21:24:41.313Z,79.76
2022-10-19T21:27:08.414Z,79.32
2022-10-19T21:29:36.701Z,79.48
2022-10-19T21:32:03.700Z,79.36
2022-10-19T21:34:31.117Z,79.47
2022-10-19T21:36:57.922Z,79.64
2022-10-19T21:39:24.549Z,79.33
2022-10-19T21:41:50.880Z,79.36
2022-10-19T21:44:18.498Z,79.53
2022-10-19T21:46:47.535Z,79.62
2022-10-19T21:49:14.111Z,79.54
2022-10-19T21:51:43.070Z,79.82
2022-10-19T21:54:15.075Z,79.55
2022-10-19T21:56:42.644Z,80.23
2022-10-19T21:59:09.062Z,79.69
2022-10-19T22:01:38.745Z,80.11
2022-10-19T22:04:13.407Z,80.31
2022-10-19T22:06:40.086Z,80.29
2022-10-19T22:09:08.509Z,80.90
2022-10-19T22:11:34.970Z,81.04
2022-10-19T22:14:02.771Z,81.31
2022-10-19T22:16:30.206Z,80.97
2022-10-19T22:18:57.706Z,80.62
2022-10-19T22:21:29.811Z,80.86
2022-10-19T22:24:02.219Z,81.18
2022-10-19T22:26:34.113Z,81.33
2022-10-19T22:29:01.962Z,81.19
2022-10-19T22:31:30.011Z,81.20
2022-10-19T22:33:59.332Z,80.70
2022-10-19T22:36:25.770Z,80.69
2022-10-19T22:38:52.115Z,80.88
2022-10-19T22:41:18.476Z,80.83
2022-10-19T22:43:44.834Z,81.36
2022-10-19T22:46:11.155Z,81.21
2022-10-19T22:48:37.795Z,81.05
2022-10-19T22:51:04.367Z,81.14
2022-10-19T22:53:30.774Z,81.57
2022-10-19T22:55:57.306Z,81.58
2022-10-19T22:58:23.664Z,81.87
2022-10-19T23:01:09.934Z,81.53
2022-10-19T23:03:36.551Z,81.83
2022-10-19T23:06:03.203Z,81.94
2022-10-19T23:08:29.571Z,81.82
2022-10-19T23:10:56.267Z,81.38
2022-10-19T23:13:22.714Z,81.44
2022-10-19T23:15:49.119Z,81.08
2022-10-19T23:18:15.415Z,81.04
2022-10-19T23:20:41.722Z,81.00
2022-10-19T23:23:08.767Z,81.44
2022-10-19T23:25:35.596Z,81.56
2022-10-19T23:28:02.207Z,81.84
2022-10-19T23:30:28.599Z,81.75
2022-10-19T23:32:55.054Z,81.37
2022-10-19T23:35:21.669Z,81.37
2022-10-19T23:37:48.154Z,81.32
2022-10-19T23:40:14.571Z,81.64
2022-10-19T23:42:40.951Z,81.51
2022-10-19T23:45:07.586Z,81.69
2022-10-19T23:47:34.185Z,81.83
2022-10-19T23:50:01.133Z,81.78
2022-10-19T23:52:27.964Z,82.09
2022-10-19T23:54:54.417Z,81.87
2022-10-19T23:57:20.822Z,81.35
2022-10-19T23:59:47.462Z,81.02
